createdAt,value
2022-08-12T00:00:17.138Z,18.93
2022-08-12T00:02:43.790Z,18.89
2022-08-12T00:05:13.107Z,18.86
2022-08-12T00:07:40.752Z,18.86
2022-08-12T00:10:07.710Z,18.89
2022-08-12T00:12:34.365Z,18.91
2022-08-12T00:15:00.936Z,18.84
2022-08-12T00:17:28.454Z,18.83
2022-08-12T00:19:54.893Z,18.73
2022-08-12T00:22:22.478Z,18.71
2022-08-12T00:24:48.962Z,18.70
2022-08-12T00:27:15.467Z,18.61
2022-08-12T00:29:47.622Z,18.58
2022-08-12T00:32:16.674Z,18.54
2022-08-12T00:35:01.672Z,18.55
2022-08-12T00:37:35.580Z,18.53
2022-08-12T00:40:11.310Z,18.56
2022-08-12T00:42:42.277Z,18.60
2022-08-12T00:45:10.739Z,18.55
2022-08-12T00:47:38.230Z,18.55
2022-08-12T00:50:05.106Z,18.52
2022-08-12T00:52:33.526Z,18.54
2022-08-12T00:55:02.217Z,18.50
2022-08-12T00:57:32.157Z,18.47
2022-08-12T01:00:06.550Z,18.49
2022-08-12T01:02:36.762Z,18.46
2022-08-12T01:05:05.418Z,18.45
2022-08-12T01:07:33.362Z,18.39
2022-08-12T01:10:01.084Z,18.42
2022-08-12T01:12:29.290Z,18.37
2022-08-12T01:14:55.859Z,18.38
2022-08-12T01:17:22.923Z,18.42
2022-08-12T01:19:53.947Z,18.43
2022-08-12T01:22:25.877Z,18.50
2022-08-12T01:25:09.923Z,18.47
2022-08-12T01:27:39.478Z,18.43
2022-08-12T01:30:08.973Z,18.42
2022-08-12T01:32:36.059Z,18.41
2022-08-12T01:35:13.347Z,18.37
2022-08-12T01:37:47.582Z,18.41
2022-08-12T01:40:34.955Z,18.41
2022-08-12T01:43:10.693Z,18.34
2022-08-12T01:45:57.061Z,18.32
2022-08-12T01:48:39.056Z,18.27
2022-08-12T01:52:15.582Z,18.32
2022-08-12T01:54:13.270Z,18.26
2022-08-12T01:57:13.342Z,18.27
2022-08-12T01:59:46.006Z,18.22
2022-08-12T02:02:16.941Z,18.22
2022-08-12T02:05:01.293Z,18.25
2022-08-12T02:07:46.368Z,18.19
2022-08-12T02:10:49.984Z,18.24
2022-08-12T02:13:48.230Z,18.22
2022-08-12T02:16:34.390Z,18.24
2022-08-12T02:19:23.457Z,18.29
2022-08-12T02:22:08.305Z,18.27
2022-08-12T02:24:38.411Z,18.29
2022-08-12T02:27:07.242Z,18.38
2022-08-12T02:29:35.389Z,18.40
2022-08-12T02:32:04.438Z,18.44
2022-08-12T02:34:32.506Z,18.47
2022-08-12T02:37:00.940Z,18.45
2022-08-12T02:39:32.321Z,18.49
2022-08-12T02:42:02.562Z,18.52
2022-08-12T02:44:30.918Z,18.49
2022-08-12T02:47:03.185Z,18.48
2022-08-12T02:49:31.248Z,18.47
2022-08-12T02:51:59.462Z,18.47
2022-08-12T02:54:27.380Z,18.45
2022-08-12T02:56:54.630Z,18.48
2022-08-12T02:59:27.218Z,18.47
2022-08-12T03:01:56.392Z,18.46
2022-08-12T03:04:33.705Z,18.50
2022-08-12T03:07:20.112Z,18.49
2022-08-12T03:10:12.123Z,18.47
2022-08-12T03:12:49.907Z,18.47
2022-08-12T03:15:22.036Z,18.48
2022-08-12T03:18:25.924Z,18.49
2022-08-12T03:20:37.270Z,18.40
2022-08-12T03:23:04.930Z,18.34
2022-08-12T03:25:34.297Z,18.30
2022-08-12T03:28:00.755Z,18.28
2022-08-12T03:30:29.786Z,18.26
2022-08-12T03:32:57.533Z,18.22
2022-08-12T03:35:40.177Z,18.22
2022-08-12T03:38:11.643Z,18.17
2022-08-12T03:40:59.497Z,18.21
2022-08-12T03:43:34.255Z,18.20
2022-08-12T03:46:07.924Z,18.13
2022-08-12T03:48:34.487Z,18.03
2022-08-12T03:51:02.247Z,17.98
2022-08-12T03:53:30.502Z,17.98
2022-08-12T03:55:57.193Z,17.96
2022-08-12T03:58:24.063Z,17.98
2022-08-12T04:00:50.849Z,18.01
2022-08-12T04:03:18.525Z,18.00
2022-08-12T04:05:55.310Z,17.95
2022-08-12T04:08:26.783Z,17.98
2022-08-12T04:10:54.673Z,17.97
2022-08-12T04:13:22.401Z,18.03
2022-08-12T04:15:49.027Z,18.06
2022-08-12T04:18:15.862Z,18.01
2022-08-12T04:20:43.137Z,18.04
2022-08-12T04:23:16.647Z,18.05
2022-08-12T04:25:44.043Z,18.11
2022-08-12T04:28:13.293Z,18.11
2022-08-12T04:30:40.780Z,18.13
2022-08-12T04:33:08.334Z,18.14
2022-08-12T04:35:35.213Z,18.18
2022-08-12T04:38:01.860Z,18.17
2022-08-12T04:40:31.074Z,18.16
2022-08-12T04:42:58.252Z,18.16
2022-08-12T04:45:25.013Z,18.17
2022-08-12T04:47:52.036Z,18.16
2022-08-12T04:50:33.766Z,18.23
2022-08-12T04:53:04.625Z,18.26
2022-08-12T04:55:31.214Z,18.23
2022-08-12T04:58:00.157Z,18.26
2022-08-12T05:00:26.640Z,18.27
2022-08-12T05:02:53.446Z,18.25
2022-08-12T05:05:23.201Z,18.27
2022-08-12T05:07:54.721Z,18.29
2022-08-12T05:10:34.022Z,18.33
2022-08-12T05:13:07.182Z,18.37
2022-08-12T05:15:33.649Z,18.38
2022-08-12T05:18:19.070Z,18.40
2022-08-12T05:20:46.870Z,18.44
2022-08-12T05:23:16.047Z,18.51
2022-08-12T05:25:43.636Z,18.57
2022-08-12T05:28:11.194Z,18.56
2022-08-12T05:30:37.653Z,18.61
2022-08-12T05:33:06.112Z,18.74
2022-08-12T05:35:33.269Z,19.79
2022-08-12T05:37:59.662Z,22.04
2022-08-12T05:40:26.122Z,24.47
2022-08-12T05:42:52.533Z,26.76
2022-08-12T05:45:18.952Z,27.83
2022-08-12T05:47:53.639Z,28.95
2022-08-12T05:50:20.919Z,29.62
2022-08-12T05:52:48.311Z,30.56
2022-08-12T05:55:15.288Z,30.91
2022-08-12T05:57:41.716Z,31.54
2022-08-12T06:00:08.597Z,31.86
2022-08-12T06:02:35.142Z,32.74
2022-08-12T06:05:02.223Z,33.18
2022-08-12T06:07:37.344Z,33.19
2022-08-12T06:10:17.362Z,34.26
2022-08-12T06:12:43.893Z,34.65
2022-08-12T06:15:10.740Z,34.48
2022-08-12T06:17:37.157Z,34.57
2022-08-12T06:20:26.502Z,34.06
2022-08-12T06:22:50.681Z,34.05
2022-08-12T06:25:21.727Z,33.56
2022-08-12T06:28:06.123Z,34.96
2022-08-12T06:30:37.920Z,35.47
2022-08-12T06:33:20.989Z,35.19
2022-08-12T06:35:49.967Z,35.28
2022-08-12T06:38:19.074Z,34.99
2022-08-12T06:40:47.239Z,35.05
2022-08-12T06:43:13.742Z,36.05
2022-08-12T06:45:45.246Z,36.86
2022-08-12T06:48:13.169Z,36.68
2022-08-12T06:50:40.279Z,37.26
2022-08-12T06:53:06.846Z,35.18
2022-08-12T06:55:33.324Z,34.48
2022-08-12T06:58:07.632Z,35.08
2022-08-12T07:00:36.964Z,35.92
2022-08-12T07:03:16.265Z,36.72
2022-08-12T07:05:50.917Z,38.11
2022-08-12T07:08:18.431Z,38.82
2022-08-12T07:10:47.436Z,39.34
2022-08-12T07:13:13.886Z,40.03
2022-08-12T07:15:40.349Z,40.24
2022-08-12T07:18:12.835Z,40.59
2022-08-12T07:20:52.659Z,38.95
2022-08-12T07:23:19.959Z,39.03
2022-08-12T07:25:46.517Z,40.06
2022-08-12T07:28:17.358Z,40.01
2022-08-12T07:30:45.280Z,40.83
2022-08-12T07:33:13.883Z,41.30
2022-08-12T07:35:41.025Z,39.31
2022-08-12T07:38:29.806Z,39.88
2022-08-12T07:41:02.255Z,39.78
2022-08-12T07:43:30.330Z,40.10
2022-08-12T07:45:57.793Z,41.13
2022-08-12T07:48:24.519Z,41.35
2022-08-12T07:50:52.132Z,41.73
2022-08-12T07:53:19.707Z,42.18
2022-08-12T07:55:46.226Z,42.53
2022-08-12T07:58:12.717Z,43.15
2022-08-12T08:00:39.693Z,43.29
2022-08-12T08:03:06.482Z,43.38
2022-08-12T08:05:33.395Z,43.59
2022-08-12T08:07:59.866Z,43.98
2022-08-12T08:10:26.379Z,43.95
2022-08-12T08:12:52.795Z,43.79
2022-08-12T08:15:19.732Z,42.92
2022-08-12T08:18:04.233Z,44.26
2022-08-12T08:20:37.637Z,43.75
2022-08-12T08:23:06.468Z,44.31
2022-08-12T08:25:36.107Z,42.76
2022-08-12T08:28:12.885Z,42.33
2022-08-12T08:30:43.216Z,43.39
2022-08-12T08:33:23.797Z,44.03
2022-08-12T08:36:00.136Z,44.39
2022-08-12T08:38:33.381Z,43.34
2022-08-12T08:41:05.246Z,43.03
2022-08-12T08:43:44.140Z,43.68
2022-08-12T08:46:11.298Z,43.98
2022-08-12T08:48:37.701Z,43.90
2022-08-12T08:51:04.874Z,44.09
2022-08-12T08:53:31.666Z,44.32
2022-08-12T08:56:05.795Z,45.04
2022-08-12T08:58:32.349Z,43.47
2022-08-12T09:00:58.723Z,43.69
2022-08-12T09:05:09.662Z,44.05
2022-08-12T09:06:11.563Z,44.36
2022-08-12T09:08:44.200Z,44.32
2022-08-12T09:11:12.783Z,44.97
2022-08-12T09:14:11.168Z,44.68
2022-08-12T09:16:42.572Z,45.69
2022-08-12T09:19:09.732Z,45.57
2022-08-12T09:21:55.423Z,46.15
2022-08-12T09:24:22.166Z,46.26
2022-08-12T09:26:49.261Z,46.59
2022-08-12T09:29:17.782Z,44.16
2022-08-12T09:32:03.301Z,43.02
2022-08-12T09:34:34.195Z,42.06
2022-08-12T09:37:19.420Z,43.55
2022-08-12T09:40:05.339Z,44.28
2022-08-12T09:42:46.011Z,43.62
2022-08-12T09:45:23.543Z,44.87
2022-08-12T09:47:59.478Z,45.75
2022-08-12T09:50:26.680Z,45.90
2022-08-12T09:53:15.598Z,45.80
2022-08-12T09:56:05.995Z,44.47
2022-08-12T09:58:57.818Z,44.60
2022-08-12T10:01:23.095Z,45.43
2022-08-12T10:04:03.643Z,45.72
2022-08-12T10:06:32.412Z,45.82
2022-08-12T10:09:06.507Z,46.46
2022-08-12T10:12:10.706Z,46.35
2022-08-12T10:14:33.372Z,46.46
2022-08-12T10:17:03.107Z,46.26
2022-08-12T10:19:36.847Z,43.76
2022-08-12T10:22:03.665Z,44.81
2022-08-12T10:24:30.112Z,45.97
2022-08-12T10:26:56.542Z,45.26
2022-08-12T10:30:38.042Z,40.78
2022-08-12T10:32:22.125Z,41.87
2022-08-12T10:35:02.790Z,42.16
2022-08-12T10:38:34.060Z,42.71
2022-08-12T10:40:21.158Z,44.46
2022-08-12T10:42:49.386Z,43.23
2022-08-12T10:45:18.074Z,42.85
2022-08-12T10:48:07.732Z,43.08
2022-08-12T10:50:56.408Z,42.92
2022-08-12T10:53:19.734Z,44.19
2022-08-12T10:55:47.377Z,43.85
2022-08-12T10:58:30.785Z,43.18
2022-08-12T11:01:49.715Z,42.95
2022-08-12T11:04:23.559Z,44.67
2022-08-12T11:07:05.239Z,45.28
2022-08-12T11:09:42.012Z,43.10
2022-08-12T11:12:36.098Z,42.98
2022-08-12T11:14:53.405Z,42.69
2022-08-12T11:17:43.541Z,42.51
2022-08-12T11:20:08.165Z,41.53
2022-08-12T11:22:41.534Z,40.46
2022-08-12T11:25:10.387Z,40.06
2022-08-12T11:27:37.890Z,40.42
2022-08-12T11:30:07.010Z,39.77
2022-08-12T11:32:51.197Z,40.70
2022-08-12T11:35:17.834Z,41.40
2022-08-12T11:37:58.769Z,41.83
2022-08-12T11:40:26.144Z,41.52
2022-08-12T11:43:00.346Z,40.92
2022-08-12T11:45:42.251Z,38.74
2022-08-12T11:48:15.414Z,39.27
2022-08-12T11:50:44.975Z,39.11
2022-08-12T11:53:59.035Z,39.53
2022-08-12T11:55:57.937Z,39.31
2022-08-12T11:59:08.450Z,38.93
2022-08-12T12:03:57.254Z,37.34
2022-08-12T12:06:25.278Z,36.36
2022-08-12T12:08:53.794Z,36.22
2022-08-12T12:11:22.129Z,35.81
2022-08-12T12:14:07.272Z,35.61
2022-08-12T12:16:39.654Z,35.30
2022-08-12T12:19:06.870Z,35.52
2022-08-12T12:21:47.934Z,34.40
2022-08-12T12:24:22.032Z,33.70
2022-08-12T12:27:00.238Z,34.03
2022-08-12T12:30:19.518Z,33.80
2022-08-12T12:32:15.870Z,33.97
2022-08-12T12:35:13.063Z,33.60
2022-08-12T12:38:03.540Z,33.65
2022-08-12T12:40:15.162Z,33.73
2022-08-12T12:42:57.768Z,33.50
2022-08-12T12:45:27.642Z,33.57
2022-08-12T12:48:04.222Z,33.88
2022-08-12T12:50:35.632Z,34.11
2022-08-12T12:53:03.910Z,33.86
2022-08-12T12:55:35.568Z,33.51
2022-08-12T12:58:03.485Z,33.56
2022-08-12T13:00:32.418Z,33.81
2022-08-12T13:02:59.009Z,33.92
2022-08-12T13:05:42.324Z,34.23
2022-08-12T13:08:20.955Z,33.99
2022-08-12T13:10:57.535Z,33.79
2022-08-12T13:14:10.120Z,33.96
2022-08-12T13:16:14.440Z,33.99
2022-08-12T13:18:45.140Z,33.68
2022-08-12T13:21:15.536Z,33.92
2022-08-12T13:23:59.473Z,34.15
2022-08-12T13:26:26.668Z,34.00
2022-08-12T13:28:55.926Z,33.81
2022-08-12T13:31:22.624Z,33.69
2022-08-12T13:34:32.053Z,33.77
2022-08-12T13:36:38.141Z,33.78
2022-08-12T13:39:05.025Z,33.62
2022-08-12T13:41:33.650Z,33.81
2022-08-12T13:44:04.845Z,33.50
2022-08-12T13:46:31.586Z,33.64
2022-08-12T13:48:58.209Z,33.66
2022-08-12T13:51:25.043Z,33.20
2022-08-12T13:54:11.699Z,33.27
2022-08-12T13:56:40.720Z,33.45
2022-08-12T13:59:08.039Z,33.02
2022-08-12T14:01:40.566Z,32.90
2022-08-12T14:04:11.221Z,33.30
2022-08-12T14:06:38.229Z,33.43
2022-08-12T14:09:15.422Z,33.20
2022-08-12T14:11:51.164Z,33.17
2022-08-12T14:14:26.335Z,33.18
2022-08-12T14:16:53.655Z,33.30
2022-08-12T14:19:24.860Z,33.09
2022-08-12T14:21:59.116Z,33.22
2022-08-12T14:24:30.790Z,33.36
2022-08-12T14:26:58.749Z,33.60
2022-08-12T14:29:56.112Z,33.65
2022-08-12T14:32:16.622Z,33.39
2022-08-12T14:34:44.123Z,33.17
2022-08-12T14:37:13.053Z,33.37
2022-08-12T14:39:57.225Z,33.20
2022-08-12T14:42:23.712Z,32.77
2022-08-12T14:44:59.233Z,32.92
2022-08-12T14:47:26.619Z,32.87
2022-08-12T14:50:34.275Z,32.79
2022-08-12T14:54:33.692Z,33.11
2022-08-12T14:58:20.091Z,33.03
2022-08-12T15:00:50.965Z,32.69
2022-08-12T15:03:20.022Z,32.87
2022-08-12T15:06:05.273Z,32.97
2022-08-12T15:08:43.365Z,33.03
2022-08-12T15:11:15.136Z,33.10
2022-08-12T15:13:48.289Z,33.38
2022-08-12T15:16:18.879Z,32.86
2022-08-12T15:18:55.102Z,32.92
2022-08-12T15:21:23.458Z,33.08
2022-08-12T15:23:55.625Z,32.89
2022-08-12T15:26:28.645Z,32.34
2022-08-12T15:28:57.714Z,32.10
2022-08-12T15:31:28.423Z,32.17
2022-08-12T15:34:10.981Z,32.50
2022-08-12T15:36:54.717Z,32.58
2022-08-12T15:39:22.186Z,32.70
2022-08-12T15:41:50.626Z,32.89
2022-08-12T15:44:42.111Z,32.71
2022-08-12T15:47:05.034Z,32.11
2022-08-12T15:49:42.893Z,32.14
2022-08-12T15:52:27.336Z,32.09
2022-08-12T15:54:58.348Z,32.17
2022-08-12T15:57:26.376Z,31.89
2022-08-12T16:00:06.781Z,32.29
2022-08-12T16:02:50.113Z,32.44
2022-08-12T16:06:10.339Z,32.75
2022-08-12T16:08:05.774Z,32.77
2022-08-12T16:10:32.801Z,32.86
2022-08-12T16:13:11.512Z,32.69
2022-08-12T16:15:38.962Z,32.32
2022-08-12T16:18:18.768Z,32.24
2022-08-12T16:20:47.308Z,32.19
2022-08-12T16:23:35.961Z,32.22
2022-08-12T16:26:06.097Z,32.27
2022-08-12T16:28:40.713Z,32.14
2022-08-12T16:31:07.509Z,32.31
2022-08-12T16:33:59.001Z,32.05
2022-08-12T16:36:25.157Z,32.32
2022-08-12T16:38:51.690Z,31.91
2022-08-12T16:41:18.618Z,31.83
2022-08-12T16:43:45.456Z,31.77
2022-08-12T16:46:31.997Z,31.53
2022-08-12T16:48:59.718Z,31.56
2022-08-12T16:51:37.453Z,31.36
2022-08-12T16:54:10.735Z,31.28
2022-08-12T16:56:40.934Z,31.34
2022-08-12T16:59:21.796Z,31.11
2022-08-12T17:01:48.666Z,30.89
2022-08-12T17:04:15.681Z,30.87
2022-08-12T17:06:43.620Z,30.58
2022-08-12T17:09:17.197Z,30.40
2022-08-12T17:11:44.800Z,30.44
2022-08-12T17:14:13.356Z,30.24
2022-08-12T17:16:39.816Z,30.08
2022-08-12T17:19:08.933Z,30.21
2022-08-12T17:21:41.070Z,30.16
2022-08-12T17:24:21.505Z,29.98
2022-08-12T17:26:50.795Z,29.85
2022-08-12T17:29:17.881Z,29.79
2022-08-12T17:31:59.941Z,29.57
2022-08-12T17:34:29.928Z,29.37
2022-08-12T17:36:56.337Z,29.29
2022-08-12T17:39:23.545Z,29.15
2022-08-12T17:41:56.680Z,29.03
2022-08-12T17:44:24.065Z,28.97
2022-08-12T17:46:53.857Z,28.83
2022-08-12T17:50:01.789Z,28.58
2022-08-12T17:52:08.549Z,28.44
2022-08-12T17:54:37.347Z,28.31
2022-08-12T17:57:16.378Z,28.07
2022-08-12T17:59:48.005Z,27.83
2022-08-12T18:02:17.190Z,27.64
2022-08-12T18:05:05.111Z,27.50
2022-08-12T18:07:36.896Z,27.44
2022-08-12T18:10:06.569Z,27.27
2022-08-12T18:12:35.977Z,27.13
2022-08-12T18:15:08.901Z,26.92
2022-08-12T18:17:39.505Z,26.76
2022-08-12T18:20:15.491Z,26.60
2022-08-12T18:22:43.675Z,26.52
2022-08-12T18:26:12.891Z,26.37
2022-08-12T18:28:15.440Z,26.01
2022-08-12T18:30:44.960Z,25.94
2022-08-12T18:33:19.272Z,25.88
2022-08-12T18:35:53.448Z,25.77
2022-08-12T18:38:22.206Z,25.63
2022-08-12T18:40:50.019Z,25.58
2022-08-12T18:43:17.479Z,25.45
2022-08-12T18:45:57.101Z,25.41
2022-08-12T18:48:24.607Z,25.36
2022-08-12T18:51:09.174Z,25.15
2022-08-12T18:54:06.412Z,24.94
2022-08-12T18:56:33.376Z,24.76
2022-08-12T18:59:02.109Z,24.58
2022-08-12T19:02:21.955Z,24.57
2022-08-12T19:04:17.360Z,24.39
2022-08-12T19:06:46.509Z,24.37
2022-08-12T19:09:15.170Z,24.30
2022-08-12T19:11:43.889Z,24.19
2022-08-12T19:14:11.898Z,24.03
2022-08-12T19:16:41.439Z,23.90
2022-08-12T19:19:09.719Z,23.77
2022-08-12T19:21:37.684Z,23.71
2022-08-12T19:24:05.873Z,23.67
2022-08-12T19:26:34.449Z,23.56
2022-08-12T19:29:02.493Z,23.54
2022-08-12T19:31:44.656Z,23.49
2022-08-12T19:34:37.710Z,23.42
2022-08-12T19:37:09.444Z,23.27
2022-08-12T19:40:10.971Z,23.23
2022-08-12T19:42:27.541Z,23.12
2022-08-12T19:44:57.204Z,23.08
2022-08-12T19:47:25.081Z,23.01
2022-08-12T19:49:57.590Z,22.95
2022-08-12T19:52:29.925Z,22.92
2022-08-12T19:54:56.642Z,22.79
2022-08-12T19:57:24.035Z,22.68
2022-08-12T20:00:03.450Z,22.55
2022-08-12T20:02:32.956Z,22.59
2022-08-12T20:06:05.076Z,22.55
2022-08-12T20:07:59.214Z,22.45
2022-08-12T20:10:35.485Z,22.49
2022-08-12T20:13:18.181Z,22.64
2022-08-12T20:15:45.803Z,22.54
2022-08-12T20:18:43.861Z,22.43
2022-08-12T20:20:58.660Z,22.45
2022-08-12T20:23:50.302Z,22.40
2022-08-12T20:26:11.647Z,22.34
2022-08-12T20:28:38.466Z,22.19
2022-08-12T20:31:05.039Z,22.13
2022-08-12T20:33:50.722Z,22.09
2022-08-12T20:36:40.825Z,21.93
2022-08-12T20:39:35.979Z,21.86
2022-08-12T20:41:53.661Z,21.80
2022-08-12T20:44:20.057Z,21.74
2022-08-12T20:46:46.908Z,21.66
2022-08-12T20:49:14.609Z,21.59
2022-08-12T20:51:54.805Z,21.62
2022-08-12T20:54:22.449Z,21.56
2022-08-12T20:56:49.245Z,21.47
2022-08-12T20:59:20.203Z,21.44
2022-08-12T21:01:48.796Z,21.34
2022-08-12T21:04:17.689Z,21.30
2022-08-12T21:06:44.993Z,21.27
2022-08-12T21:09:12.277Z,21.21
2022-08-12T21:11:38.700Z,21.15
2022-08-12T21:14:05.239Z,21.14
2022-08-12T21:16:38.963Z,21.20
2022-08-12T21:19:08.213Z,21.26
2022-08-12T21:21:50.771Z,21.21
2022-08-12T21:24:17.296Z,21.11
2022-08-12T21:26:53.365Z,21.10
2022-08-12T21:29:20.275Z,20.99
2022-08-12T21:32:40.465Z,20.93
2022-08-12T21:34:33.924Z,20.88
2022-08-12T21:37:13.059Z,20.80
2022-08-12T21:39:52.210Z,20.74
2022-08-12T21:42:18.972Z,20.74
2022-08-12T21:45:46.183Z,20.69
2022-08-12T21:47:32.040Z,20.68
2022-08-12T21:50:03.136Z,20.64
2022-08-12T21:52:41.090Z,20.70
2022-08-12T21:55:18.537Z,21.12
2022-08-12T21:57:51.152Z,21.52
2022-08-12T22:00:22.144Z,21.18
2022-08-12T22:02:48.725Z,20.96
2022-08-12T22:05:15.240Z,21.18
2022-08-12T22:07:46.239Z,20.96
2022-08-12T22:10:28.259Z,20.73
2022-08-12T22:12:55.934Z,20.57
2022-08-12T22:15:23.177Z,20.40
2022-08-12T22:17:55.285Z,20.34
2022-08-12T22:20:22.322Z,20.23
2022-08-12T22:22:56.663Z,20.13
2022-08-12T22:25:23.797Z,20.07
2022-08-12T22:27:53.391Z,19.98
2022-08-12T22:30:21.250Z,19.91
2022-08-12T22:32:49.857Z,19.86
2022-08-12T22:35:22.356Z,19.81
2022-08-12T22:37:50.907Z,19.77
2022-08-12T22:40:21.518Z,19.74
2022-08-12T22:42:51.291Z,19.74
2022-08-12T22:45:18.163Z,19.71
2022-08-12T22:47:55.052Z,19.65
2022-08-12T22:50:29.565Z,19.62
2022-08-12T22:52:59.459Z,19.63
2022-08-12T22:55:58.990Z,19.62
2022-08-12T22:58:12.769Z,19.54
2022-08-12T23:00:39.312Z,19.50
2022-08-12T23:03:05.800Z,19.50
2022-08-12T23:05:56.600Z,19.50
2022-08-12T23:08:22.095Z,19.43
2022-08-12T23:10:49.184Z,19.40
2022-08-12T23:13:16.165Z,19.34
2022-08-12T23:15:47.781Z,19.28
2022-08-12T23:18:21.276Z,19.24
2022-08-12T23:20:50.189Z,19.19
2022-08-12T23:23:17.528Z,19.12
2022-08-12T23:25:55.429Z,19.06
2022-08-12T23:28:29.249Z,19.03
2022-08-12T23:30:56.816Z,18.98
2022-08-12T23:34:00.773Z,18.97
2022-08-12T23:36:09.700Z,18.93
2022-08-12T23:38:39.239Z,18.88
2022-08-12T23:41:12.739Z,18.85
2022-08-12T23:43:42.922Z,18.84
2022-08-12T23:46:19.163Z,18.81
2022-08-12T23:48:47.903Z,18.79
2022-08-12T23:51:22.562Z,18.75
2022-08-12T23:53:59.708Z,18.71
2022-08-12T23:56:28.553Z,18.66
2022-08-12T23:58:57.691Z,18.65
